Time;durP1;ratioP1;P1;durP2;ratioP2;P2;SDS_P1;SDS_P2;PMS_P1;PMS_P2;Temp;Humidity;BMP_temperature;BMP_pressure;BME280_temperature;BME280_humidity;BME280_pressure;Samples;Min_cycle;Max_cycle;Signal;HPM_P1;HPM_P2
2023/01/01 00:01:39;;;;;;;55.93;49.93;;;;;;;6.05;100.00;97407.22;5039440;28;20730;-70
2023/01/01 00:04:10;;;;;;;59.23;52.83;;;;;;;6.01;100.00;97411.97;5029708;28;20215;-68
2023/01/01 00:06:38;;;;;;;69.57;61.60;;;;;;;6.06;100.00;97417.59;5046355;28;20202;-71
2023/01/01 00:11:53;;;;;;;95.17;79.47;;;;;;;6.12;100.00;97421.44;5043021;28;20206;-68
2023/01/01 00:14:21;;;;;;;97.60;81.37;;;;;;;6.10;100.00;97414.66;5042788;28;20491;-71
2023/01/01 00:16:48;;;;;;;102.27;84.70;;;;;;;6.00;100.00;97412.06;5048182;28;20246;-71
2023/01/01 00:19:16;;;;;;;98.60;82.63;;;;;;;6.03;100.00;97419.69;5029067;28;20537;-70
2023/01/01 00:21:45;;;;;;;105.73;86.57;;;;;;;6.03;100.00;97419.69;5043921;28;20509;-71
2023/01/01 00:24:13;;;;;;;109.87;92.30;;;;;;;6.00;100.00;97426.06;5001138;28;20910;-69
2023/01/01 00:26:40;;;;;;;119.17;95.03;;;;;;;5.99;100.00;97403.38;5039772;28;20227;-71
2023/01/01 00:29:10;;;;;;;113.53;93.67;;;;;;;6.02;100.00;97411.00;5042884;28;20310;-68
2023/01/01 00:31:37;;;;;;;123.10;99.67;;;;;;;6.04;100.00;97414.28;5043131;28;20191;-71
2023/01/01 00:34:05;;;;;;;122.03;102.47;;;;;;;6.04;100.00;97419.56;5025636;28;20287;-68
2023/01/01 00:36:33;;;;;;;115.53;101.80;;;;;;;6.04;100.00;97414.28;5044275;28;20733;-71
2023/01/01 00:39:02;;;;;;;117.20;99.27;;;;;;;5.98;100.00;97417.50;5014878;28;20219;-68
2023/01/01 00:41:30;;;;;;;120.57;100.73;;;;;;;5.97;100.00;97413.22;5035057;28;20598;-68
2023/01/01 00:43:58;;;;;;;122.67;101.17;;;;;;;5.90;100.00;97420.06;4993497;28;20930;-70
2023/01/01 00:46:27;;;;;;;122.03;102.63;;;;;;;5.82;100.00;97414.69;5039977;28;20570;-70
2023/01/01 00:48:54;;;;;;;121.37;104.03;;;;;;;5.74;100.00;97426.75;5036404;28;20233;-69
2023/01/01 00:51:22;;;;;;;127.53;106.73;;;;;;;5.75;100.00;97423.16;5039894;28;20605;-69
2023/01/01 00:53:50;;;;;;;126.70;106.67;;;;;;;5.67;100.00;97425.72;5041042;28;20294;-70
2023/01/01 00:56:18;;;;;;;124.87;101.77;;;;;;;5.69;100.00;97422.94;5045629;28;20207;-68
2023/01/01 00:58:46;;;;;;;123.73;101.13;;;;;;;5.67;100.00;97430.13;5007220;28;20218;-68
2023/01/01 01:01:29;;;;;;;122.37;101.93;;;;;;;5.66;100.00;97421.41;5038628;28;20198;-70
2023/01/01 01:03:57;;;;;;;120.90;101.37;;;;;;;5.67;100.00;97415.19;5038155;28;20300;-70
2023/01/01 01:06:25;;;;;;;117.30;98.53;;;;;;;5.76;100.00;97409.03;5039875;28;20250;-70
2023/01/01 01:08:52;;;;;;;117.90;91.67;;;;;;;5.75;100.00;97417.91;5039913;28;20715;-68
2023/01/01 01:11:23;;;;;;;110.83;88.37;;;;;;;5.79;100.00;97413.19;5040374;28;20238;-70
2023/01/01 01:13:52;;;;;;;97.13;84.83;;;;;;;5.91;100.00;97419.06;5044014;28;20592;-68
2023/01/01 01:16:22;;;;;;;97.70;79.93;;;;;;;5.91;100.00;97417.25;5004776;28;20222;-69
2023/01/01 01:18:52;;;;;;;94.33;77.50;;;;;;;5.90;100.00;97423.50;5044233;28;20222;-70
2023/01/01 01:21:22;;;;;;;92.47;77.43;;;;;;;5.84;100.00;97425.88;5041121;28;20427;-68
2023/01/01 01:23:50;;;;;;;87.93;75.57;;;;;;;5.87;100.00;97431.69;5036181;28;20198;-69
2023/01/01 01:26:21;;;;;;;83.87;70.70;;;;;;;5.88;100.00;97435.16;5045432;28;20269;-69
2023/01/01 01:28:49;;;;;;;90.03;72.23;;;;;;;5.89;100.00;97428.91;5044904;28;20802;-70
2023/01/01 01:31:17;;;;;;;82.07;67.70;;;;;;;5.87;100.00;97425.56;5012286;28;20224;-69
2023/01/01 01:33:45;;;;;;;81.23;68.67;;;;;;;5.84;100.00;97436.41;5042231;28;20899;-69
2023/01/01 01:36:16;;;;;;;84.80;68.67;;;;;;;5.80;100.00;97438.50;5038771;28;20203;-69
2023/01/01 01:38:43;;;;;;;82.37;66.47;;;;;;;5.83;100.00;97440.00;5041153;28;20254;-70
2023/01/01 01:41:12;;;;;;;75.97;64.37;;;;;;;5.78;100.00;97446.53;5045995;28;20297;-69
2023/01/01 01:43:57;;;;;;;73.60;63.97;;;;;;;5.82;100.00;97448.88;5043352;28;20298;-67
2023/01/01 01:46:30;;;;;;;75.10;62.00;;;;;;;5.80;100.00;97451.66;4995462;28;20679;-68
2023/01/01 01:49:01;;;;;;;77.90;63.40;;;;;;;5.78;100.00;97451.78;5035878;28;20429;-71
2023/01/01 01:51:33;;;;;;;69.57;58.07;;;;;;;5.71;100.00;97448.09;5040216;28;20291;-68
2023/01/01 01:54:04;;;;;;;67.53;56.63;;;;;;;5.70;100.00;97454.34;5045736;28;20702;-71
2023/01/01 01:56:36;;;;;;;63.17;54.43;;;;;;;5.68;100.00;97440.50;5045215;28;20817;-69
2023/01/01 01:59:04;;;;;;;60.73;51.27;;;;;;;5.71;100.00;97455.16;5045431;28;20250;-70
2023/01/01 02:01:31;;;;;;;59.07;49.43;;;;;;;5.78;100.00;97451.78;5002430;28;20242;-68
2023/01/01 02:04:01;;;;;;;56.47;48.17;;;;;;;5.81;100.00;97442.78;5039867;28;20866;-68
2023/01/01 02:06:31;;;;;;;53.63;44.73;;;;;;;5.82;100.00;97446.22;5041476;28;20341;-68
2023/01/01 02:09:01;;;;;;;51.20;43.53;;;;;;;5.76;100.00;97443.22;5037462;28;20324;-70
2023/01/01 02:11:28;;;;;;;50.73;40.13;;;;;;;5.79;100.00;97450.81;5038903;28;20662;-67
2023/01/01 02:13:57;;;;;;;46.27;40.67;;;;;;;5.85;100.00;97444.16;5040442;28;20466;-69
2023/01/01 02:16:29;;;;;;;41.33;36.13;;;;;;;5.86;100.00;97439.69;5036824;28;20596;-67
2023/01/01 02:19:02;;;;;;;40.87;34.87;;;;;;;5.85;100.00;97435.41;5028098;28;20898;-70
2023/01/01 02:21:34;;;;;;;39.70;31.17;;;;;;;5.91;100.00;97442.75;5041230;28;20294;-68
2023/01/01 02:24:16;;;;;;;36.70;32.60;;;;;;;5.99;100.00;97432.31;5037742;28;20310;-68
2023/01/01 02:26:50;;;;;;;34.27;30.60;;;;;;;6.13;100.00;97430.16;5040667;28;20561;-69
2023/01/01 02:29:25;;;;;;;35.87;29.20;;;;;;;6.19;100.00;97430.38;5038861;28;20349;-68
2023/01/01 02:31:58;;;;;;;33.93;28.50;;;;;;;6.20;100.00;97421.53;5045521;28;20432;-70
2023/01/01 02:34:30;;;;;;;31.60;28.13;;;;;;;6.21;100.00;97422.34;5002881;28;20311;-68
2023/01/01 02:36:59;;;;;;;31.60;27.57;;;;;;;6.25;100.00;97415.81;5041767;28;20390;-70
2023/01/01 02:39:29;;;;;;;32.87;27.90;;;;;;;6.20;100.00;97421.53;5041650;28;20652;-68
2023/01/01 02:41:59;;;;;;;34.47;28.23;;;;;;;6.14;100.00;97411.59;5038417;28;20425;-71
2023/01/01 02:44:30;;;;;;;31.90;27.37;;;;;;;6.08;100.00;97406.94;5041685;28;20302;-69
2023/01/01 02:47:08;;;;;;;29.80;25.40;;;;;;;6.13;100.00;97404.69;5041372;28;20207;-71
2023/01/01 02:49:39;;;;;;;29.70;26.07;;;;;;;6.28;100.00;97409.41;5000191;28;20236;-69
2023/01/01 02:52:09;;;;;;;28.03;23.40;;;;;;;6.40;100.00;97417.91;4997950;28;20733;-68
2023/01/01 02:54:42;;;;;;;26.77;23.87;;;;;;;6.56;100.00;97415.38;5042784;28;20401;-69
2023/01/01 02:57:14;;;;;;;27.37;23.53;;;;;;;6.49;100.00;97414.34;5040279;28;20595;-69
2023/01/01 03:02:53;;;;;;;26.77;23.93;;;;;;;6.36;100.00;97417.38;5032885;28;20277;-71
2023/01/01 03:05:27;;;;;;;23.97;21.57;;;;;;;6.29;100.00;97413.69;5040482;28;20377;-66
2023/01/01 03:08:04;;;;;;;28.27;23.80;;;;;;;6.23;100.00;97413.31;5004701;28;20606;-68
2023/01/01 03:10:39;;;;;;;26.03;23.23;;;;;;;6.20;100.00;97424.16;5045975;28;20230;-70
2023/01/01 03:13:12;;;;;;;26.23;22.80;;;;;;;6.22;100.00;97414.31;5046637;28;20219;-68
2023/01/01 03:15:43;;;;;;;24.60;22.10;;;;;;;6.16;100.00;97421.97;5045593;28;20272;-71
2023/01/01 03:18:14;;;;;;;26.50;23.30;;;;;;;6.14;100.00;97423.91;5040109;28;20241;-68
2023/01/01 03:20:45;;;;;;;25.53;21.43;;;;;;;6.25;100.00;97423.72;5045045;28;20199;-70
2023/01/01 03:23:16;;;;;;;28.83;24.10;;;;;;;6.18;100.00;97427.91;4992858;28;20570;-68
2023/01/01 03:25:47;;;;;;;24.60;22.00;;;;;;;6.15;100.00;97422.94;5042993;28;20718;-70
2023/01/01 03:28:17;;;;;;;27.40;23.03;;;;;;;6.18;100.00;97430.53;5025644;28;20313;-71
2023/01/01 03:30:47;;;;;;;23.97;21.40;;;;;;;6.11;100.00;97422.44;5046567;28;20442;-71
2023/01/01 03:33:17;;;;;;;26.93;23.27;;;;;;;6.10;100.00;97422.56;5039948;28;20208;-71
2023/01/01 03:35:48;;;;;;;26.40;23.03;;;;;;;6.00;100.00;97427.84;5042463;28;20627;-71
2023/01/01 03:38:18;;;;;;;25.00;22.07;;;;;;;5.99;100.00;97432.31;4997806;28;20470;-68
2023/01/01 03:40:48;;;;;;;24.07;21.57;;;;;;;5.91;100.00;97430.41;5046842;28;20251;-71
2023/01/01 03:43:20;;;;;;;25.33;21.43;;;;;;;5.88;100.00;97430.69;5041862;28;20530;-69
2023/01/01 03:45:50;;;;;;;24.10;20.30;;;;;;;5.89;100.00;97434.16;5042582;28;20704;-69
2023/01/01 03:48:18;;;;;;;25.13;22.23;;;;;;;5.92;100.00;97439.94;5036095;28;20483;-69
2023/01/01 03:50:53;;;;;;;29.23;23.07;;;;;;;5.91;100.00;97442.75;5036634;28;20270;-70
2023/01/01 03:53:27;;;;;;;25.47;21.20;;;;;;;5.85;100.00;97448.56;5040979;28;20210;-70
2023/01/01 03:55:59;;;;;;;24.90;21.37;;;;;;;5.92;100.00;97445.22;5004667;28;20221;-67
2023/01/01 03:58:32;;;;;;;23.87;21.30;;;;;;;5.93;100.00;97456.56;5039633;28;20516;-69
2023/01/01 04:01:04;;;;;;;26.27;21.80;;;;;;;6.00;100.00;97446.25;5035591;28;20281;-68
2023/01/01 04:03:33;;;;;;;24.30;21.73;;;;;;;5.90;100.00;97455.03;5044315;28;20578;-70
2023/01/01 04:06:01;;;;;;;27.10;21.80;;;;;;;5.86;100.00;97451.06;5039159;28;20638;-68
2023/01/01 04:08:32;;;;;;;25.00;21.67;;;;;;;5.86;100.00;97445.81;5035774;28;20288;-69
2023/01/01 04:12:00;;;;;;;24.63;22.00;;;;;;;5.95;100.00;97438.84;5000695;28;20404;-68
2023/01/01 04:13:48;;;;;;;24.43;21.93;;;;;;;6.01;100.00;97455.84;5045508;28;20207;-70
2023/01/01 04:16:17;;;;;;;24.87;20.93;;;;;;;6.13;100.00;97446.78;5039332;28;20370;-69
2023/01/01 04:18:45;;;;;;;24.73;21.90;;;;;;;6.16;100.00;97443.00;5043155;28;20504;-70
2023/01/01 04:21:13;;;;;;;33.13;25.00;;;;;;;6.12;100.00;97442.50;5040416;28;20650;-69
2023/01/01 04:23:40;;;;;;;26.60;23.53;;;;;;;6.05;100.00;97446.66;5030792;28;20203;-70
2023/01/01 04:26:12;;;;;;;30.13;26.17;;;;;;;5.90;100.00;97441.91;5000472;28;20293;-68
2023/01/01 04:28:41;;;;;;;30.37;25.77;;;;;;;5.80;100.00;97447.22;5035909;28;20318;-70
2023/01/01 04:31:10;;;;;;;28.13;24.77;;;;;;;5.70;100.00;97445.63;5039781;28;20376;-68
2023/01/01 04:33:39;;;;;;;30.63;26.10;;;;;;;5.59;100.00;97449.28;5046649;28;20294;-71
2023/01/01 04:36:09;;;;;;;31.63;27.33;;;;;;;5.49;100.00;97459.81;5042630;28;20589;-68
2023/01/01 04:38:37;;;;;;;34.37;28.83;;;;;;;5.50;100.00;97467.56;5041987;28;20218;-71
2023/01/01 04:41:07;;;;;;;33.97;29.53;;;;;;;5.49;100.00;97468.56;5013792;28;20793;-68
2023/01/01 04:43:34;;;;;;;37.53;29.17;;;;;;;5.47;100.00;97470.47;5038854;28;20206;-70
2023/01/01 04:46:03;;;;;;;32.37;28.23;;;;;;;5.39;100.00;97470.38;5039421;28;20201;-67
2023/01/01 04:48:32;;;;;;;39.73;31.90;;;;;;;5.35;100.00;97474.25;5044328;28;20238;-69
2023/01/01 04:51:03;;;;;;;38.63;31.13;;;;;;;5.26;100.00;97480.38;5044263;28;20223;-68
2023/01/01 04:53:32;;;;;;;36.33;31.43;;;;;;;5.20;100.00;97482.59;5038599;28;20247;-70
2023/01/01 04:56:03;;;;;;;37.17;32.67;;;;;;;5.10;100.00;97480.97;5040830;28;20686;-67
2023/01/01 04:58:31;;;;;;;37.23;29.80;;;;;;;5.02;100.00;97486.91;5004066;28;20342;-70
2023/01/01 05:00:59;;;;;;;37.67;30.37;;;;;;;5.04;100.00;97484.97;4979868;28;20883;-70
2023/01/01 05:03:28;;;;;;;34.77;31.07;;;;;;;5.15;100.00;97476.13;5046675;28;20762;-69
2023/01/01 05:06:04;;;;;;;41.33;31.37;;;;;;;5.26;100.00;97480.38;5039227;28;20472;-69
2023/01/01 05:08:32;;;;;;;36.90;31.43;;;;;;;5.19;100.00;97488.84;5025332;28;20234;-68
2023/01/01 05:11:01;;;;;;;39.43;32.13;;;;;;;5.21;100.00;97486.03;5045386;28;20334;-70
2023/01/01 05:13:29;;;;;;;37.07;32.23;;;;;;;5.15;100.00;97490.09;5043200;28;20214;-69
2023/01/01 05:15:57;;;;;;;38.30;32.23;;;;;;;5.16;100.00;97490.91;5005538;28;20907;-70
2023/01/01 05:18:25;;;;;;;39.00;31.27;;;;;;;5.19;100.00;97495.88;5023123;28;20305;-69
2023/01/01 05:20:52;;;;;;;37.97;29.93;;;;;;;5.21;100.00;97494.78;5036304;28;20441;-70
2023/01/01 05:23:21;;;;;;;38.10;30.10;;;;;;;5.37;100.00;97482.81;5025251;28;20557;-67
2023/01/01 05:25:49;;;;;;;35.53;28.93;;;;;;;5.42;100.00;97500.81;5039148;28;20264;-70
2023/01/01 05:28:17;;;;;;;35.90;30.23;;;;;;;5.33;100.00;97492.81;5025311;28;20396;-69
2023/01/01 05:30:44;;;;;;;37.30;28.77;;;;;;;5.29;100.00;97498.47;4998608;28;22492;-71
2023/01/01 05:33:12;;;;;;;35.20;29.47;;;;;;;5.32;100.00;97499.03;5017218;28;21060;-69
2023/01/01 05:35:40;;;;;;;37.73;30.57;;;;;;;5.29;100.00;97506.38;5039361;28;20306;-69
2023/01/01 05:38:07;;;;;;;33.30;27.57;;;;;;;5.22;100.00;97506.09;5015114;28;20235;-68
2023/01/01 05:40:38;;;;;;;35.27;28.43;;;;;;;5.27;100.00;97509.13;5024580;28;20207;-70
2023/01/01 05:43:06;;;;;;;35.43;29.83;;;;;;;5.28;100.00;97505.53;5034842;28;20411;-70
2023/01/01 05:45:34;;;;;;;38.10;29.50;;;;;;;5.23;100.00;97510.38;5037944;28;20212;-71
2023/01/01 05:48:03;;;;;;;34.63;27.63;;;;;;;5.25;100.00;97510.25;4995512;28;20654;-69
2023/01/01 05:50:30;;;;;;;34.33;27.63;;;;;;;5.36;100.00;97516.16;5037132;28;20223;-70
2023/01/01 05:52:58;;;;;;;32.77;27.13;;;;;;;5.44;100.00;97509.38;5025913;28;20208;-68
2023/01/01 05:55:26;;;;;;;35.23;27.03;;;;;;;5.69;100.00;97514.97;5024697;28;20493;-70
2023/01/01 05:57:55;;;;;;;29.97;26.47;;;;;;;5.81;100.00;97521.69;5041988;28;20229;-68
2023/01/01 06:00:23;;;;;;;32.85;29.35;;;;;;;5.93;100.00;97517.06;5041903;28;20446;-71
2023/01/01 06:02:51;;;;;;;28.90;25.53;;;;;;;5.93;100.00;97525.75;5004136;28;20399;-68
2023/01/01 06:05:19;;;;;;;32.13;25.60;;;;;;;5.83;100.00;97529.41;5043676;28;20265;-68
2023/01/01 06:07:46;;;;;;;30.00;25.70;;;;;;;5.70;100.00;97527.94;5027550;28;20238;-69
2023/01/01 06:10:15;;;;;;;31.83;25.57;;;;;;;5.71;100.00;97537.50;5018857;28;22063;-68
2023/01/01 06:12:43;;;;;;;27.40;24.37;;;;;;;5.57;100.00;97541.41;5042467;28;20255;-71
2023/01/01 06:15:12;;;;;;;29.83;24.43;;;;;;;5.45;100.00;97545.19;5042148;28;20661;-68
2023/01/01 06:17:40;;;;;;;33.57;25.50;;;;;;;5.30;100.00;97543.03;5004480;28;20237;-70
2023/01/01 06:20:09;;;;;;;30.83;25.23;;;;;;;5.34;100.00;97549.66;5041402;28;20268;-70
2023/01/01 06:22:37;;;;;;;29.83;26.27;;;;;;;5.35;100.00;97548.69;5041567;28;20202;-69
2023/01/01 06:25:05;;;;;;;29.00;25.70;;;;;;;5.32;100.00;97556.00;5009082;28;20218;-68
2023/01/01 06:27:34;;;;;;;34.30;24.73;;;;;;;5.27;100.00;97559.03;5047767;28;20745;-69
2023/01/01 06:30:02;;;;;;;30.57;27.00;;;;;;;5.13;100.00;97568.22;5043166;28;20286;-68
2023/01/01 06:32:32;;;;;;;29.27;24.20;;;;;;;5.03;100.00;97572.63;4979147;28;20221;-68
2023/01/01 06:35:00;;;;;;;34.25;29.98;;;;;;;4.93;100.00;97570.03;5037106;28;20448;-68
2023/01/01 06:37:28;;;;;;;31.90;26.53;;;;;;;4.82;100.00;97563.09;5038539;28;20522;-68
2023/01/01 06:39:56;;;;;;;32.03;26.50;;;;;;;4.87;100.00;97567.91;5033583;28;20238;-68
2023/01/01 06:42:23;;;;;;;28.27;25.27;;;;;;;4.90;100.00;97559.75;5026011;28;20312;-71
2023/01/01 06:44:58;;;;;;;31.10;26.13;;;;;;;5.01;100.00;97582.44;5043818;28;20215;-69
2023/01/01 06:47:26;;;;;;;34.13;26.83;;;;;;;4.96;100.00;97580.25;5025707;28;20638;-70
2023/01/01 06:49:55;;;;;;;31.77;27.90;;;;;;;4.80;100.00;97585.19;4994664;28;20212;-69
2023/01/01 06:52:23;;;;;;;31.27;27.77;;;;;;;4.69;100.00;97589.63;5040630;28;20603;-72
2023/01/01 06:54:50;;;;;;;32.43;27.10;;;;;;;4.70;100.00;97590.44;5042743;28;20555;-68
2023/01/01 06:57:19;;;;;;;32.20;26.03;;;;;;;4.68;100.00;97587.97;5024097;28;20481;-70
2023/01/01 06:59:46;;;;;;;34.87;27.53;;;;;;;4.77;100.00;97599.44;5040662;28;20209;-68
2023/01/01 07:02:14;;;;;;;33.30;27.33;;;;;;;4.78;100.00;97603.72;5026812;28;20633;-70
2023/01/01 07:04:42;;;;;;;34.03;29.30;;;;;;;4.77;100.00;97592.38;5004659;28;20231;-68
2023/01/01 07:07:11;;;;;;;36.67;28.97;;;;;;;4.78;100.00;97583.53;4996807;28;20247;-71
2023/01/01 07:09:39;;;;;;;36.97;29.43;;;;;;;4.79;100.00;97581.75;5016088;28;20924;-68
2023/01/01 07:12:07;;;;;;;33.80;28.13;;;;;;;4.69;100.00;97584.38;5041599;28;20246;-71
2023/01/01 07:14:34;;;;;;;33.03;27.80;;;;;;;4.68;100.00;97589.75;5042413;28;20699;-68
2023/01/01 07:17:02;;;;;;;34.10;27.57;;;;;;;4.65;100.00;97585.63;5028458;28;20214;-68
2023/01/01 07:19:30;;;;;;;34.90;28.03;;;;;;;4.60;100.00;97583.38;5040384;28;20299;-69
2023/01/01 07:21:58;;;;;;;36.27;28.30;;;;;;;4.74;100.00;97592.66;4975841;28;20555;-71
2023/01/01 07:24:27;;;;;;;33.20;28.93;;;;;;;4.90;100.00;97588.66;5038108;28;20519;-70
2023/01/01 07:26:54;;;;;;;33.90;27.20;;;;;;;5.10;100.00;97593.91;5041251;28;20326;-70
2023/01/01 07:29:22;;;;;;;33.43;27.63;;;;;;;5.09;100.00;97587.81;5046729;28;20233;-71
2023/01/01 07:31:50;;;;;;;33.40;27.80;;;;;;;5.13;100.00;97594.47;5022816;28;20526;-69
2023/01/01 07:34:18;;;;;;;37.33;29.27;;;;;;;5.14;100.00;97601.38;5042324;28;20211;-70
2023/01/01 07:36:46;;;;;;;33.73;27.50;;;;;;;5.20;100.00;97603.44;4992812;28;20231;-68
2023/01/01 07:39:14;;;;;;;35.67;28.30;;;;;;;5.20;100.00;97600.81;5033088;28;20464;-71
2023/01/01 07:41:43;;;;;;;34.30;27.63;;;;;;;5.17;100.00;97608.16;5031450;28;20311;-68
2023/01/01 07:44:11;;;;;;;31.83;27.20;;;;;;;5.21;100.00;97606.91;5022116;28;20211;-70
2023/01/01 07:46:39;;;;;;;31.00;24.90;;;;;;;5.12;100.00;97597.22;5033180;28;20213;-68
2023/01/01 07:49:06;;;;;;;33.10;26.53;;;;;;;5.05;100.00;97613.53;5029743;28;20442;-68
2023/01/01 07:51:35;;;;;;;35.20;29.07;;;;;;;4.97;100.00;97623.91;5032548;28;20225;-69
2023/01/01 07:54:03;;;;;;;33.50;27.47;;;;;;;4.94;100.00;97618.94;4998316;28;20405;-71
2023/01/01 07:56:34;;;;;;;37.10;29.60;;;;;;;4.80;100.00;97616.69;5049598;28;20602;-69
2023/01/01 07:59:03;;;;;;;34.10;27.47;;;;;;;4.78;100.00;97627.34;5041795;28;20718;-71
2023/01/01 08:01:31;;;;;;;34.23;28.80;;;;;;;4.76;100.00;97631.91;5043651;28;20203;-71
2023/01/01 08:03:59;;;;;;;31.93;28.47;;;;;;;4.80;100.00;97633.31;5023548;28;20210;-71
2023/01/01 08:06:26;;;;;;;36.53;28.67;;;;;;;4.84;100.00;97634.69;5038868;28;20541;-69
2023/01/01 08:08:54;;;;;;;35.53;29.40;;;;;;;4.85;100.00;97636.34;4979571;28;20239;-71
2023/01/01 08:11:21;;;;;;;31.90;26.87;;;;;;;4.89;100.00;97645.59;5046981;28;20227;-71
2023/01/01 08:13:49;;;;;;;32.03;27.47;;;;;;;4.89;100.00;97647.38;5037649;28;20203;-69
2023/01/01 08:16:18;;;;;;;35.33;28.20;;;;;;;4.92;100.00;97652.34;5028400;28;20201;-69
2023/01/01 08:18:46;;;;;;;33.83;28.27;;;;;;;4.96;100.00;97650.31;5004080;28;20531;-71
2023/01/01 08:21:14;;;;;;;31.93;27.00;;;;;;;4.99;100.00;97657.91;5020243;28;20564;-70
2023/01/01 08:23:41;;;;;;;30.80;26.03;;;;;;;5.10;100.00;97649.88;4999609;28;20718;-68
2023/01/01 08:26:14;;;;;;;32.07;27.73;;;;;;;5.19;100.00;97649.09;5039825;28;20211;-71
2023/01/01 08:28:42;;;;;;;30.77;27.10;;;;;;;5.26;100.00;97645.91;5020694;28;20977;-67
2023/01/01 08:31:09;;;;;;;34.17;28.20;;;;;;;5.30;100.00;97636.75;5038417;28;20207;-71
2023/01/01 08:33:39;;;;;;;33.77;27.73;;;;;;;5.32;100.00;97638.28;5023837;28;20462;-68
2023/01/01 08:36:08;;;;;;;30.67;26.17;;;;;;;5.34;100.00;97625.84;5041704;28;20682;-69
2023/01/01 08:38:36;;;;;;;31.13;25.10;;;;;;;5.39;100.00;97628.03;4966920;28;20622;-68
2023/01/01 08:41:03;;;;;;;29.53;26.40;;;;;;;5.48;100.00;97624.56;5043433;28;20639;-71
2023/01/01 08:43:31;;;;;;;35.53;28.63;;;;;;;5.51;100.00;97628.72;5041376;28;20224;-68
2023/01/01 08:45:58;;;;;;;38.93;28.10;;;;;;;5.58;100.00;97637.69;5036516;28;20465;-72
2023/01/01 08:48:26;;;;;;;33.53;26.17;;;;;;;5.69;100.00;97633.28;5026652;28;20259;-69
2023/01/01 08:51:00;;;;;;;31.27;27.20;;;;;;;5.85;100.00;97630.00;5040836;28;20326;-70
2023/01/01 08:53:28;;;;;;;32.67;27.43;;;;;;;5.97;100.00;97635.94;5012556;28;20268;-69
2023/01/01 08:55:57;;;;;;;33.97;27.93;;;;;;;6.08;100.00;97631.38;5015287;28;21626;-70
2023/01/01 08:58:25;;;;;;;33.87;28.23;;;;;;;6.20;100.00;97639.91;5038708;28;20297;-69
2023/01/01 09:00:53;;;;;;;33.20;28.57;;;;;;;6.34;100.00;97629.88;5015471;28;20341;-71
2023/01/01 09:03:20;;;;;;;33.97;27.90;;;;;;;6.49;100.00;97638.09;5027226;28;20211;-71
2023/01/01 09:05:48;;;;;;;31.47;28.07;;;;;;;6.62;100.00;97643.03;5036471;28;20503;-71
2023/01/01 09:08:17;;;;;;;30.20;27.00;;;;;;;6.76;100.00;97634.63;5036465;28;20231;-71
2023/01/01 09:10:45;;;;;;;32.00;26.73;;;;;;;6.90;100.00;97637.75;4983378;28;20382;-72
2023/01/01 09:13:14;;;;;;;30.63;27.40;;;;;;;7.03;100.00;97640.81;5009984;28;20387;-68
2023/01/01 09:15:42;;;;;;;30.23;26.13;;;;;;;7.10;100.00;97638.41;5004635;28;20203;-71
2023/01/01 09:18:10;;;;;;;29.70;26.10;;;;;;;7.23;100.00;97644.13;5039557;28;20250;-69
2023/01/01 09:20:39;;;;;;;28.87;25.53;;;;;;;7.36;100.00;97637.63;5025864;28;20210;-69
2023/01/01 09:23:07;;;;;;;31.47;28.07;;;;;;;7.49;100.00;97643.38;5039025;28;20228;-69
2023/01/01 09:25:36;;;;;;;31.80;25.57;;;;;;;7.52;100.00;97637.78;5044354;28;20221;-71
2023/01/01 09:28:05;;;;;;;29.23;26.30;;;;;;;7.65;100.00;97652.38;5045313;28;20249;-69
2023/01/01 09:30:34;;;;;;;27.87;25.00;;;;;;;7.79;100.00;97654.47;5004132;28;20402;-70
2023/01/01 09:33:02;;;;;;;28.20;25.20;;;;;;;7.88;100.00;97651.88;5037083;28;20439;-68
2023/01/01 09:35:30;;;;;;;27.23;24.33;;;;;;;7.99;100.00;97648.97;5029035;28;22541;-70
2023/01/01 09:37:57;;;;;;;26.43;23.63;;;;;;;8.09;100.00;97646.22;5043894;28;20592;-69
2023/01/01 09:40:28;;;;;;;26.10;23.03;;;;;;;8.18;100.00;97642.63;5040414;28;20190;-71
2023/01/01 09:43:06;;;;;;;26.80;22.80;;;;;;;8.28;100.00;97647.81;5042659;28;20689;-68
2023/01/01 09:45:37;;;;;;;25.80;23.10;;;;;;;8.33;100.00;97649.94;5002060;28;20271;-70
2023/01/01 09:48:07;;;;;;;25.73;23.07;;;;;;;8.38;100.00;97639.78;5044016;28;20305;-68
2023/01/01 09:50:36;;;;;;;26.42;23.77;;;;;;;8.43;100.00;97644.56;5044626;28;20957;-70
2023/01/01 09:53:06;;;;;;;26.10;23.30;;;;;;;8.42;100.00;97637.63;5026798;28;20250;-69
2023/01/01 09:55:40;;;;;;;24.87;22.27;;;;;;;8.42;100.00;97640.25;5047208;28;20225;-71
2023/01/01 09:58:11;;;;;;;25.58;23.08;;;;;;;8.35;100.00;97635.63;5042787;28;20443;-67
2023/01/01 10:00:41;;;;;;;26.40;23.07;;;;;;;8.23;100.00;97635.06;5044364;28;20209;-70
2023/01/01 10:03:29;;;;;;;25.27;22.57;;;;;;;8.25;100.00;97633.09;5000118;28;20230;-68
2023/01/01 10:06:01;;;;;;;26.70;23.13;;;;;;;8.40;100.00;97643.06;5024417;28;20464;-70
2023/01/01 10:08:36;;;;;;;23.10;20.70;;;;;;;8.50;100.00;97638.53;5024368;28;20258;-67
2023/01/01 10:11:12;;;;;;;24.43;21.83;;;;;;;8.54;100.00;97631.94;5025754;28;20211;-71
2023/01/01 10:13:42;;;;;;;24.70;21.87;;;;;;;8.57;100.00;97625.50;5038609;28;20230;-68
2023/01/01 10:16:13;;;;;;;25.53;22.73;;;;;;;8.55;100.00;97630.13;5026120;28;20280;-71
2023/01/01 10:18:51;;;;;;;24.60;22.20;;;;;;;8.62;100.00;97630.28;5007837;28;20488;-69
2023/01/01 10:21:22;;;;;;;25.93;23.13;;;;;;;8.68;100.00;97622.56;5045542;28;20206;-69
2023/01/01 10:23:54;;;;;;;25.50;22.80;;;;;;;8.73;100.00;97626.53;5030842;28;20412;-71
2023/01/01 10:26:26;;;;;;;25.57;22.90;;;;;;;8.83;100.00;97624.56;5052731;28;20698;-68
2023/01/01 10:29:00;;;;;;;26.93;24.33;;;;;;;8.95;100.00;97631.22;5034728;28;20226;-71
2023/01/01 10:31:31;;;;;;;25.80;23.03;;;;;;;9.00;100.00;97622.78;5022275;28;20217;-68
2023/01/01 10:34:01;;;;;;;24.90;22.57;;;;;;;9.06;100.00;97621.31;5004109;28;20284;-69
2023/01/01 10:36:29;;;;;;;27.80;24.70;;;;;;;9.19;100.00;97619.00;5017074;28;20489;-69
2023/01/01 10:38:56;;;;;;;24.50;22.17;;;;;;;9.15;100.00;97616.88;5007781;28;20749;-72
2023/01/01 10:41:24;;;;;;;25.17;22.53;;;;;;;9.25;100.00;97597.19;5047887;28;20211;-68
2023/01/01 10:43:51;;;;;;;25.37;22.77;;;;;;;9.15;100.00;97601.00;5010609;28;20654;-70
2023/01/01 10:46:23;;;;;;;26.80;22.20;;;;;;;9.08;100.00;97604.28;5044722;28;20674;-68
2023/01/01 10:49:10;;;;;;;25.00;22.47;;;;;;;9.04;100.00;97602.97;4994647;28;21511;-70
2023/01/01 10:51:43;;;;;;;25.17;22.50;;;;;;;9.15;100.00;97601.81;5039845;28;20355;-69
2023/01/01 10:54:33;;;;;;;25.87;23.17;;;;;;;9.12;100.00;97594.22;5029943;28;20510;-71
2023/01/01 10:57:13;;;;;;;26.63;23.77;;;;;;;9.14;100.00;97594.88;5039641;28;20206;-71
2023/01/01 10:59:42;;;;;;;24.53;22.23;;;;;;;9.19;100.00;97597.03;5008264;28;20206;-69
2023/01/01 11:02:21;;;;;;;23.70;21.33;;;;;;;9.06;100.00;97594.88;5044750;28;20617;-68
2023/01/01 11:04:51;;;;;;;25.23;22.57;;;;;;;9.11;100.00;97600.50;4996911;28;20871;-71
2023/01/01 11:07:24;;;;;;;23.43;21.00;;;;;;;9.15;100.00;97585.16;5039728;28;20227;-69
2023/01/01 11:09:53;;;;;;;24.23;21.73;;;;;;;9.26;100.00;97587.44;5029654;28;20610;-69
2023/01/01 11:12:34;;;;;;;24.13;21.53;;;;;;;9.26;100.00;97598.84;5042172;28;20309;-68
2023/01/01 11:15:24;;;;;;;24.00;21.40;;;;;;;9.31;100.00;97594.91;5018244;28;20216;-68
2023/01/01 11:18:02;;;;;;;24.40;21.90;;;;;;;9.38;100.00;97595.88;5040658;28;20218;-70
2023/01/01 11:20:30;;;;;;;22.77;19.83;;;;;;;9.46;100.00;97600.31;5044718;28;20906;-69
2023/01/01 11:22:58;;;;;;;23.13;20.83;;;;;;;9.51;100.00;97593.56;4981049;28;20207;-71
2023/01/01 11:25:27;;;;;;;25.80;22.03;;;;;;;9.52;100.00;97595.19;5033323;28;20533;-69
2023/01/01 11:28:17;;;;;;;23.07;20.57;;;;;;;9.54;100.00;97579.19;5025027;28;20230;-71
2023/01/01 11:30:58;;;;;;;22.03;19.83;;;;;;;9.59;100.00;97576.84;5018259;28;20286;-68
2023/01/01 11:33:29;;;;;;;24.70;22.37;;;;;;;9.67;100.00;97573.38;5029600;28;20580;-69
2023/01/01 11:35:57;;;;;;;24.58;22.05;;;;;;;9.76;100.00;97574.16;5044288;28;20450;-69